Maine-Soroa, Niger
Current Conditions -  °F | °C
As of 10:00 PM on Thursday 23 Oct 2014 (Local Time) from FTTJ Reporting Station
Clear Clear  
Wind Chill: 79°   Ceiling: Unl
Heat Index: 81°   Visibility: 6mi
Dew Point: 64°   Wind: 6mph
Humidity: 61%   Direction: 190°S
Pressure: 29.88"   Gusts: NA
Location:  13.21°N, 12.03°E
Report Text: FTTJ 232100Z 19005KT CAVOK 26/18 Q1012 NOSIG
Loading
Personal Weather Stations






























Interactive Weather Map
Tropical Storm Tracking
New forecast layout! Learn more

10-Day Weather Forecast

Advertisements
Track Severe Weather on mobile